Newport, NC (28570)

8:04 AM EST on March 01, 2015 (GMT -0500)
Sea Gate | Change Station
CLOSE
Current Station
Personal Weather Station
Location: Newport, NC
Elevation: 10 ft
Nearby Weather Stations

Elev 10 ft 34.85 °N, 76.69 °W | Updated 3 minutes ago

Overcast
Overcast
39.9 °F
Feels Like 40 °F
N
0.0
Wind Variable Wind from North
Gusts 2.0 mph

Today
High -- | Low -- °F
--% Chance of Precip.
Yesterday
High -- | Low -- °F
Precip. -- in
6:37 AM 6:03 PM
Waxing Gibbous, 85% visible
Pressure 30.57 in
Visibility 10.0 miles
Clouds Mostly Cloudy 4000 ft
Overcast 10000 ft
Windchill 40 °F
Dew Point 37 °F
Humidity 88%
Rainfall 0.00 in
Snow Depth Not available.
UV 0 out of 12
Pollen 3.70 out of 12
Air Quality Not available.
Flu Activity Not available.
METAR KNKT 011254Z 01006KT 10SM -DZ BKN040 OVC100 04/01 A3058 RMK AO2 DZB33 SLP351 P0000 T00390006 $

More Conditions Fewer Conditions

Pressure 30.57 in
Visibility 10.0 miles
Clouds Mostly Cloudy 4000 ft
Overcast 10000 ft
Windchill 40 °F
Dew Point 37 °F
Humidity 88%
Rainfall 0.00 in
Snow Depth Not available.
UV 0 out of 12
Pollen 3.70 out of 12
Air Quality Not available.
Flu Activity Not available.
METAR KNKT 011254Z 01006KT 10SM -DZ BKN040 OVC100 04/01 A3058 RMK AO2 DZB33 SLP351 P0000 T00390006 $

More Conditions Fewer Conditions

10-Day Weather Forecast

Almanac

Astronomy

Mar. 01, 2015 Rise Set
Actual Time
Civil Twilight
Nautical Twilight
Astronomical Twilight
Moon
Length of Visible Light
Length of Day
Tomorrow will be .
, % of the Moon is Illuminated

Today's Extremes

State Highs State Lows

Community

WunderPhotos

Upload Photos

1,801,373 photos uploaded!

WunderBlogs® & News

Nearby

Air Quality

  Air Quality AQ Index Pollutant
Not available.

Snow Depth

Station Depth Elevation

Earthquake Activity

City Distance Mag. Time & Date
Minimum magnitude displayed is 2.5.

Coastal Water Temperatures

Place Temperature

Nearby Weather Stations